Main page
METAR-TAF:

METAR-TAF

Airports :

Agri-Science Center

Chillicothe, Missouri, United States

latitude: 39-49N, longitude: 093-35W, elevation: 768 ft

Current weather observation

The report was made 1 hour and 17 minutes ago, at 13:51 UTC
Wind 9 mph from the South/Southeast
Temperature 45°F
Humidity 53%
Pressure 30.01 in. Hg

METAR: KCDJ 211351Z AUTO 15008KT 07/M02 A3001 RMK AO1 SLP168 T00721017

Time: 10:08 (15:08 UTC)


TAF: missing

Weather observations and forecasts of more than 4000 airports (METAR and TAF reports).

The available stations are represented by yellow and red dots on the map.

Hover mouse over dot to see the name of the station.

Then click to see weather observations and forecasts.

To change the map : click on the green buttons with a black cross to zoom in, on the green button with a dash to zoom out, or on the green arrows for adjacent maps.


METAR-TAF: